createdAt,value
2019-05-23T00:01:54.556Z,99.90
2019-05-23T00:05:11.481Z,99.90
2019-05-23T00:08:02.597Z,99.90
2019-05-23T00:10:55.989Z,99.90
2019-05-23T00:13:49.474Z,99.90
2019-05-23T00:16:23.493Z,99.90
2019-05-23T00:18:55.821Z,99.90
2019-05-23T00:21:26.630Z,99.90
2019-05-23T00:24:00.275Z,99.90
2019-05-23T00:26:31.401Z,99.90
2019-05-23T00:29:09.953Z,99.90
2019-05-23T00:31:54.345Z,99.90
2019-05-23T00:34:25.985Z,99.90
2019-05-23T00:36:56.456Z,99.90
2019-05-23T00:39:27.277Z,99.90
2019-05-23T00:41:58.144Z,99.90
2019-05-23T00:44:30.782Z,99.90
2019-05-23T00:47:01.848Z,99.90
2019-05-23T00:49:32.215Z,99.90
2019-05-23T00:52:04.054Z,99.90
2019-05-23T00:54:34.455Z,99.90
2019-05-23T00:57:06.658Z,99.90
2019-05-23T00:59:37.073Z,99.90
2019-05-23T01:02:09.456Z,99.90
2019-05-23T01:04:42.307Z,99.90
2019-05-23T01:07:14.710Z,99.90
2019-05-23T01:09:46.377Z,99.90
2019-05-23T01:12:18.235Z,99.90
2019-05-23T01:14:49.218Z,99.90
2019-05-23T01:17:22.759Z,99.90
2019-05-23T01:19:54.221Z,99.90
2019-05-23T01:22:25.351Z,99.90
2019-05-23T01:24:58.247Z,99.90
2019-05-23T01:27:30.508Z,99.90
2019-05-23T01:30:02.534Z,99.90
2019-05-23T01:32:39.940Z,99.90
2019-05-23T01:35:13.512Z,99.90
2019-05-23T01:37:45.112Z,99.90
2019-05-23T01:40:16.266Z,99.90
2019-05-23T01:42:47.466Z,99.90
2019-05-23T01:45:19.374Z,99.90
2019-05-23T01:47:50.367Z,99.90
2019-05-23T01:50:25.345Z,99.90
2019-05-23T01:52:56.810Z,99.90
2019-05-23T01:55:27.460Z,99.90
2019-05-23T01:57:59.566Z,99.90
2019-05-23T02:00:31.408Z,99.90
2019-05-23T02:03:01.889Z,99.90
2019-05-23T02:05:33.322Z,99.90
2019-05-23T02:08:04.354Z,99.90
2019-05-23T02:10:35.501Z,99.90
2019-05-23T02:13:07.251Z,99.90
2019-05-23T02:15:37.846Z,99.90
2019-05-23T02:18:10.088Z,99.90
2019-05-23T02:20:41.455Z,99.90
2019-05-23T02:23:19.843Z,99.90
2019-05-23T02:25:51.750Z,99.90
2019-05-23T02:28:23.809Z,99.90
2019-05-23T02:30:54.263Z,99.90
2019-05-23T02:33:25.222Z,99.90
2019-05-23T02:35:55.622Z,99.90
2019-05-23T02:38:57.824Z,99.90
2019-05-23T02:41:58.499Z,99.90
2019-05-23T02:44:31.829Z,99.90
2019-05-23T02:47:20.649Z,99.90
2019-05-23T02:49:52.055Z,99.90
2019-05-23T02:52:44.183Z,99.90
2019-05-23T02:55:23.311Z,99.90
2019-05-23T02:57:55.869Z,99.90
2019-05-23T03:01:03.556Z,99.90
2019-05-23T03:03:35.964Z,99.90
2019-05-23T03:06:12.900Z,99.90
2019-05-23T03:08:46.272Z,99.90
2019-05-23T03:11:36.679Z,99.90
2019-05-23T03:14:09.163Z,99.90
2019-05-23T03:16:42.504Z,99.90
2019-05-23T03:19:37.134Z,99.90
2019-05-23T03:22:28.294Z,99.90
2019-05-23T03:25:03.238Z,99.90
2019-05-23T03:27:39.886Z,99.90
2019-05-23T03:30:15.882Z,99.90
2019-05-23T03:32:49.049Z,99.90
2019-05-23T03:35:29.685Z,99.90
2019-05-23T03:38:01.621Z,99.90
2019-05-23T03:40:33.371Z,99.90
2019-05-23T03:43:05.313Z,99.90
2019-05-23T03:45:40.227Z,99.90
2019-05-23T03:48:11.721Z,99.90
2019-05-23T03:50:43.632Z,99.90
2019-05-23T03:53:15.073Z,99.90
2019-05-23T03:55:48.067Z,99.90
2019-05-23T03:58:21.377Z,99.90
2019-05-23T04:00:53.558Z,99.90
2019-05-23T04:03:26.747Z,99.90
2019-05-23T04:05:58.963Z,99.90
2019-05-23T04:08:30.282Z,99.90
2019-05-23T04:11:01.909Z,99.90
2019-05-23T04:13:32.627Z,99.90
2019-05-23T04:16:03.686Z,99.90
2019-05-23T04:18:35.393Z,99.90
2019-05-23T04:21:06.259Z,99.90
2019-05-23T04:23:36.761Z,99.90
2019-05-23T04:26:07.371Z,99.90
2019-05-23T04:28:38.074Z,99.90
2019-05-23T04:31:12.728Z,99.90
2019-05-23T04:33:40.996Z,99.90
2019-05-23T04:36:11.848Z,99.90
2019-05-23T04:38:43.259Z,99.90
2019-05-23T04:41:13.967Z,99.90
2019-05-23T04:43:44.555Z,99.90
2019-05-23T04:46:15.421Z,99.90
2019-05-23T04:48:46.043Z,99.90
2019-05-23T04:51:16.588Z,99.90
2019-05-23T04:53:47.320Z,99.90
2019-05-23T04:56:18.149Z,99.90
2019-05-23T04:58:49.165Z,99.90
2019-05-23T05:01:21.838Z,99.90
2019-05-23T05:03:52.828Z,99.90
2019-05-23T05:06:24.921Z,99.90
2019-05-23T05:08:56.922Z,99.90
2019-05-23T05:11:30.428Z,99.90
2019-05-23T05:14:00.107Z,99.90
2019-05-23T05:16:31.329Z,99.90
2019-05-23T05:19:01.885Z,99.90
2019-05-23T05:21:32.473Z,99.90
2019-05-23T05:24:02.999Z,99.90
2019-05-23T05:26:33.658Z,99.90
2019-05-23T05:29:05.308Z,99.90
2019-05-23T05:31:36.156Z,99.90
2019-05-23T05:34:06.693Z,99.90
2019-05-23T05:36:37.164Z,99.90
2019-05-23T05:39:09.361Z,99.90
2019-05-23T05:41:40.361Z,99.90
2019-05-23T05:44:11.729Z,99.90
2019-05-23T05:46:42.885Z,99.90
2019-05-23T05:49:13.919Z,99.90
2019-05-23T05:51:44.689Z,99.90
2019-05-23T05:54:15.771Z,99.90
2019-05-23T05:56:46.623Z,99.90
2019-05-23T05:59:17.000Z,99.90
2019-05-23T06:01:47.909Z,99.90
2019-05-23T06:04:18.461Z,99.90
2019-05-23T06:07:08.448Z,99.90
2019-05-23T06:09:38.864Z,99.90
2019-05-23T06:12:09.573Z,99.90
2019-05-23T06:14:40.143Z,99.90
2019-05-23T06:17:13.694Z,99.90
2019-05-23T06:19:44.135Z,99.90
2019-05-23T06:22:15.493Z,99.90
2019-05-23T06:24:52.358Z,99.90
2019-05-23T06:27:20.408Z,99.90
2019-05-23T06:29:50.871Z,99.90
2019-05-23T06:32:22.956Z,99.90
2019-05-23T06:34:55.304Z,99.90
2019-05-23T06:37:26.656Z,99.90
2019-05-23T06:39:57.994Z,99.90
2019-05-23T06:42:29.000Z,99.90
2019-05-23T06:44:59.775Z,99.90
2019-05-23T06:47:31.499Z,99.90
2019-05-23T06:50:02.076Z,99.90
2019-05-23T06:52:32.614Z,99.90
2019-05-23T06:55:03.031Z,99.90
2019-05-23T06:57:33.504Z,99.90
2019-05-23T07:00:04.303Z,99.90
2019-05-23T07:02:35.108Z,99.90
2019-05-23T07:05:06.461Z,99.90
2019-05-23T07:07:37.380Z,99.90
2019-05-23T07:10:08.950Z,99.90
2019-05-23T07:12:39.579Z,99.90
2019-05-23T07:15:10.840Z,99.90
2019-05-23T07:17:41.367Z,99.90
2019-05-23T07:20:12.951Z,99.90
2019-05-23T07:22:43.427Z,99.90
2019-05-23T07:25:14.427Z,99.90
2019-05-23T07:27:45.378Z,99.90
2019-05-23T07:30:20.552Z,99.90
2019-05-23T07:32:51.022Z,99.90
2019-05-23T07:35:21.918Z,99.90
2019-05-23T07:37:52.651Z,99.90
2019-05-23T07:40:24.837Z,99.90
2019-05-23T07:42:56.371Z,99.90
2019-05-23T07:45:39.764Z,99.90
2019-05-23T07:48:09.115Z,99.90
2019-05-23T07:50:39.674Z,99.90
2019-05-23T07:53:12.381Z,99.90
2019-05-23T07:55:45.780Z,99.90
2019-05-23T07:58:16.484Z,99.90
2019-05-23T08:00:52.467Z,99.90
2019-05-23T08:03:24.652Z,99.90
2019-05-23T08:05:55.251Z,99.90
2019-05-23T08:08:25.764Z,99.90
2019-05-23T08:10:56.448Z,99.90
2019-05-23T08:13:27.006Z,99.90
2019-05-23T08:15:57.670Z,99.90
2019-05-23T08:18:28.554Z,99.90
2019-05-23T08:20:59.069Z,99.90
2019-05-23T08:23:29.631Z,99.90
2019-05-23T08:26:00.091Z,99.90
2019-05-23T08:28:30.903Z,99.90
2019-05-23T08:31:01.363Z,99.90
2019-05-23T08:33:32.310Z,99.90
2019-05-23T08:36:03.440Z,99.90
2019-05-23T08:38:34.089Z,99.90
2019-05-23T08:41:05.743Z,99.90
2019-05-23T08:43:36.395Z,99.90
2019-05-23T08:46:08.034Z,99.90
2019-05-23T08:48:38.838Z,99.90
2019-05-23T08:51:09.259Z,99.90
2019-05-23T08:53:40.215Z,99.90
2019-05-23T08:56:18.814Z,99.90
2019-05-23T08:58:43.426Z,99.90
2019-05-23T09:01:13.981Z,99.90
2019-05-23T09:03:44.773Z,99.90
2019-05-23T09:06:15.562Z,99.90
2019-05-23T09:08:46.699Z,99.90
2019-05-23T09:11:19.409Z,99.90
2019-05-23T09:13:49.953Z,99.90
2019-05-23T09:16:21.085Z,99.90
2019-05-23T09:18:51.699Z,99.90
2019-05-23T09:21:22.359Z,99.90
2019-05-23T09:23:52.734Z,99.90
2019-05-23T09:26:23.553Z,99.90
2019-05-23T09:28:53.948Z,99.60
2019-05-23T09:31:24.648Z,99.40
2019-05-23T09:33:55.299Z,99.10
2019-05-23T09:36:26.025Z,99.60
2019-05-23T09:38:56.442Z,99.40
2019-05-23T09:41:26.874Z,98.90
2019-05-23T09:43:57.394Z,98.80
2019-05-23T09:46:27.954Z,98.80
2019-05-23T09:48:58.439Z,99.00
2019-05-23T09:51:29.193Z,99.90
2019-05-23T09:53:59.819Z,99.00
2019-05-23T09:56:31.518Z,99.90
2019-05-23T09:59:02.105Z,99.90
2019-05-23T10:01:32.854Z,99.90
2019-05-23T10:04:04.424Z,99.90
2019-05-23T10:06:35.050Z,99.90
2019-05-23T10:09:07.627Z,99.90
2019-05-23T10:11:38.256Z,99.90
2019-05-23T10:14:14.784Z,99.90
2019-05-23T10:16:45.865Z,99.90
2019-05-23T10:19:16.598Z,99.90
2019-05-23T10:21:47.567Z,99.90
2019-05-23T10:24:19.534Z,99.90
2019-05-23T10:26:50.029Z,99.90
2019-05-23T10:29:20.689Z,99.90
2019-05-23T10:31:51.101Z,99.90
2019-05-23T10:34:21.724Z,99.90
2019-05-23T10:36:52.480Z,99.90
2019-05-23T10:39:23.319Z,99.90
2019-05-23T10:41:54.131Z,99.90
2019-05-23T10:44:24.604Z,99.90
2019-05-23T10:46:55.169Z,99.90
2019-05-23T10:49:25.636Z,99.90
2019-05-23T10:51:56.087Z,99.90
2019-05-23T10:54:26.513Z,99.90
2019-05-23T10:56:57.128Z,99.90
2019-05-23T10:59:28.285Z,99.90
2019-05-23T11:01:58.671Z,99.90
2019-05-23T11:04:29.189Z,99.90
2019-05-23T11:07:01.315Z,99.90
2019-05-23T11:09:38.060Z,99.90
2019-05-23T11:12:06.052Z,99.90
2019-05-23T11:14:36.894Z,99.90
2019-05-23T11:17:08.258Z,99.90
2019-05-23T11:19:38.818Z,99.90
2019-05-23T11:22:11.339Z,99.90
2019-05-23T11:24:42.089Z,99.90
2019-05-23T11:27:12.762Z,99.90
2019-05-23T11:29:43.374Z,99.90
2019-05-23T11:32:19.260Z,99.90
2019-05-23T11:34:55.223Z,99.90
2019-05-23T11:37:26.041Z,99.90
2019-05-23T11:39:56.811Z,99.90
2019-05-23T11:42:27.224Z,99.90
2019-05-23T11:44:58.819Z,99.90
2019-05-23T11:47:31.993Z,99.90
2019-05-23T11:50:02.176Z,99.90
2019-05-23T11:52:32.698Z,99.90
2019-05-23T11:55:03.615Z,99.90
2019-05-23T11:57:37.476Z,99.90
2019-05-23T12:00:10.011Z,99.90
2019-05-23T12:02:42.524Z,99.90
2019-05-23T12:05:20.420Z,99.90
2019-05-23T12:07:51.203Z,99.90
2019-05-23T12:10:21.840Z,99.90
2019-05-23T12:12:52.224Z,99.90
2019-05-23T12:15:27.506Z,99.90
2019-05-23T12:17:58.554Z,99.90
2019-05-23T12:20:29.325Z,99.90
2019-05-23T12:22:59.918Z,99.90
2019-05-23T12:25:31.253Z,99.90
2019-05-23T12:28:01.684Z,99.90
2019-05-23T12:30:33.219Z,99.90
2019-05-23T12:33:03.734Z,99.90
2019-05-23T12:35:34.253Z,99.90
2019-05-23T12:38:05.288Z,99.90
2019-05-23T12:40:36.275Z,99.90
2019-05-23T12:43:06.854Z,99.90
2019-05-23T12:45:37.439Z,99.90
2019-05-23T12:48:14.371Z,99.90
2019-05-23T12:50:46.078Z,99.90
2019-05-23T12:53:18.272Z,99.90
2019-05-23T12:55:48.901Z,99.90
2019-05-23T12:58:20.151Z,99.90
2019-05-23T13:00:54.074Z,99.90
2019-05-23T13:03:24.889Z,99.90
2019-05-23T13:05:55.518Z,99.90
2019-05-23T13:08:26.186Z,99.90
2019-05-23T13:10:56.679Z,99.90
2019-05-23T13:13:27.926Z,99.90
2019-05-23T13:15:58.468Z,99.90
2019-05-23T13:18:28.852Z,99.90
2019-05-23T13:21:00.006Z,99.90
2019-05-23T13:23:31.190Z,99.90
2019-05-23T13:26:03.184Z,99.90
2019-05-23T13:28:33.632Z,99.90
2019-05-23T13:31:04.255Z,99.60
2019-05-23T13:33:34.648Z,95.40
2019-05-23T13:36:05.429Z,93.20
2019-05-23T13:38:36.043Z,95.00
2019-05-23T13:41:07.659Z,96.70
2019-05-23T13:43:38.186Z,99.90
2019-05-23T13:46:09.206Z,99.90
2019-05-23T13:48:40.173Z,99.90
2019-05-23T13:51:10.797Z,99.90
2019-05-23T13:53:41.441Z,99.90
2019-05-23T13:56:11.864Z,99.90
2019-05-23T13:58:42.462Z,99.90
2019-05-23T14:01:13.290Z,99.90
2019-05-23T14:03:44.107Z,99.90
2019-05-23T14:06:14.632Z,99.90
2019-05-23T14:08:45.035Z,99.90
2019-05-23T14:11:15.815Z,99.90
2019-05-23T14:13:46.710Z,99.90
2019-05-23T14:16:17.761Z,99.90
2019-05-23T14:18:48.170Z,99.90
2019-05-23T14:21:18.567Z,99.90
2019-05-23T14:23:49.169Z,99.90
2019-05-23T14:26:20.553Z,99.90
2019-05-23T14:28:51.121Z,99.90
2019-05-23T14:31:23.906Z,99.90
2019-05-23T14:34:00.439Z,99.90
2019-05-23T14:36:41.743Z,99.90
2019-05-23T14:39:34.624Z,99.90
2019-05-23T14:42:31.967Z,99.90
2019-05-23T14:45:02.741Z,99.90
2019-05-23T14:47:44.905Z,99.90
2019-05-23T14:50:38.366Z,99.90
2019-05-23T14:53:11.763Z,99.90
2019-05-23T14:55:42.552Z,99.90
2019-05-23T14:58:13.707Z,99.90
2019-05-23T15:00:45.446Z,99.90
2019-05-23T15:03:15.971Z,99.90
2019-05-23T15:05:46.787Z,99.90
2019-05-23T15:08:17.420Z,99.90
2019-05-23T15:10:48.184Z,99.90
2019-05-23T15:13:18.741Z,99.90
2019-05-23T15:15:49.670Z,99.90
2019-05-23T15:18:20.219Z,99.90
2019-05-23T15:20:51.110Z,99.90
2019-05-23T15:23:21.827Z,99.90
2019-05-23T15:25:52.842Z,99.90
2019-05-23T15:28:23.509Z,99.90
2019-05-23T15:30:54.071Z,99.90
2019-05-23T15:33:24.666Z,99.90
2019-05-23T15:35:55.369Z,99.90
2019-05-23T15:38:27.234Z,99.90
2019-05-23T15:40:57.920Z,99.90
2019-05-23T15:43:28.520Z,99.90
2019-05-23T15:45:58.978Z,99.90
2019-05-23T15:48:29.543Z,99.90
2019-05-23T15:51:00.195Z,99.90
2019-05-23T15:53:47.696Z,99.90
2019-05-23T15:56:28.879Z,99.90
2019-05-23T15:59:15.338Z,99.90
2019-05-23T16:01:53.749Z,99.90
2019-05-23T16:04:24.721Z,99.90
2019-05-23T16:06:55.937Z,99.90
2019-05-23T16:09:31.059Z,99.90
2019-05-23T16:12:01.868Z,99.90
2019-05-23T16:14:32.619Z,99.90
2019-05-23T16:17:03.264Z,99.90
2019-05-23T16:19:33.976Z,99.90
2019-05-23T16:22:05.329Z,99.90
2019-05-23T16:24:37.831Z,99.90
2019-05-23T16:27:09.117Z,99.90
2019-05-23T16:29:40.596Z,99.90
2019-05-23T16:32:11.082Z,99.90
2019-05-23T16:34:41.806Z,99.90
2019-05-23T16:37:12.758Z,99.90
2019-05-23T16:39:48.728Z,99.90
2019-05-23T16:42:16.174Z,99.90
2019-05-23T16:44:46.623Z,99.90
2019-05-23T16:47:17.155Z,99.90
2019-05-23T16:49:47.738Z,99.90
2019-05-23T16:52:18.335Z,99.90
2019-05-23T16:54:51.597Z,99.90
2019-05-23T16:57:31.627Z,99.90
2019-05-23T17:00:16.996Z,99.90
2019-05-23T17:02:58.975Z,99.90
2019-05-23T17:05:51.243Z,99.90
2019-05-23T17:08:43.367Z,99.90
2019-05-23T17:11:35.769Z,99.90
2019-05-23T17:14:14.681Z,99.90
2019-05-23T17:16:51.159Z,99.90
2019-05-23T17:19:39.791Z,99.90
2019-05-23T17:22:38.554Z,99.90
2019-05-23T17:25:34.290Z,99.90
2019-05-23T17:28:09.089Z,99.90
2019-05-23T17:30:49.961Z,99.90
2019-05-23T17:33:21.557Z,99.90
2019-05-23T17:35:52.083Z,99.90
2019-05-23T17:38:22.888Z,99.90
2019-05-23T17:40:53.984Z,99.90
2019-05-23T17:43:24.480Z,99.90
2019-05-23T17:45:55.128Z,99.90
2019-05-23T17:48:25.750Z,99.90
2019-05-23T17:50:56.259Z,99.90
2019-05-23T17:53:27.308Z,99.90
2019-05-23T17:55:58.354Z,99.90
2019-05-23T17:58:28.925Z,99.90
2019-05-23T18:00:59.936Z,99.90
2019-05-23T18:03:30.971Z,99.90
2019-05-23T18:06:02.714Z,99.90
2019-05-23T18:08:33.716Z,99.90
2019-05-23T18:11:04.418Z,99.90
2019-05-23T18:13:35.567Z,99.90
2019-05-23T18:16:06.740Z,99.90
2019-05-23T18:18:37.247Z,99.90
2019-05-23T18:21:09.284Z,99.90
2019-05-23T18:23:40.531Z,99.90
2019-05-23T18:26:11.659Z,99.90
2019-05-23T18:28:42.399Z,99.90
2019-05-23T18:31:17.409Z,99.90
2019-05-23T18:33:48.542Z,99.90
2019-05-23T18:36:19.813Z,99.90
2019-05-23T18:38:50.543Z,99.90
2019-05-23T18:41:21.420Z,99.90
2019-05-23T18:43:52.512Z,99.90
2019-05-23T18:46:41.257Z,99.90
2019-05-23T18:49:14.563Z,99.90
2019-05-23T18:51:45.484Z,99.90
2019-05-23T18:54:16.199Z,99.90
2019-05-23T18:56:47.126Z,99.90
2019-05-23T18:59:36.090Z,99.90
2019-05-23T19:02:07.056Z,99.90
2019-05-23T19:04:38.046Z,99.90
2019-05-23T19:07:27.621Z,99.90
2019-05-23T19:10:33.832Z,99.90
2019-05-23T19:13:22.273Z,99.90
2019-05-23T19:15:52.809Z,99.90
2019-05-23T19:18:24.350Z,99.90
2019-05-23T19:21:12.780Z,99.90
2019-05-23T19:24:01.700Z,99.90
2019-05-23T19:26:32.931Z,99.90
2019-05-23T19:29:04.008Z,99.90
2019-05-23T19:31:52.158Z,99.90
2019-05-23T19:34:23.084Z,99.90
2019-05-23T19:37:18.354Z,99.90
2019-05-23T19:39:49.063Z,99.90
2019-05-23T19:42:41.190Z,99.90
2019-05-23T19:45:12.263Z,99.90
2019-05-23T19:47:43.280Z,99.90
2019-05-23T19:50:14.756Z,99.90
2019-05-23T19:53:20.916Z,99.90
2019-05-23T19:56:09.344Z,99.90
2019-05-23T19:59:15.378Z,99.90
2019-05-23T20:02:07.811Z,99.90
2019-05-23T20:04:41.738Z,99.90
2019-05-23T20:07:15.633Z,99.90
2019-05-23T20:09:48.478Z,99.90
2019-05-23T20:12:19.470Z,99.90
2019-05-23T20:14:50.391Z,99.90
2019-05-23T20:17:21.646Z,99.90
2019-05-23T20:19:52.852Z,99.90
2019-05-23T20:22:23.285Z,99.90
2019-05-23T20:25:12.076Z,99.90
2019-05-23T20:27:42.721Z,99.90
2019-05-23T20:30:20.662Z,99.90
2019-05-23T20:32:51.544Z,99.90
2019-05-23T20:35:22.446Z,99.90
2019-05-23T20:38:11.541Z,99.90
2019-05-23T20:40:59.994Z,99.90
2019-05-23T20:43:31.139Z,99.90
2019-05-23T20:46:19.648Z,99.90
2019-05-23T20:48:50.500Z,99.90
2019-05-23T20:51:39.871Z,99.90
2019-05-23T20:54:10.518Z,99.90
2019-05-23T20:56:41.489Z,99.90
2019-05-23T20:59:30.098Z,99.90
2019-05-23T21:02:00.573Z,99.90
2019-05-23T21:04:31.880Z,99.90
2019-05-23T21:07:02.305Z,99.90
2019-05-23T21:09:33.201Z,99.90
2019-05-23T21:12:04.223Z,99.90
2019-05-23T21:14:34.882Z,99.90
2019-05-23T21:17:05.860Z,99.90
2019-05-23T21:19:36.653Z,99.90
2019-05-23T21:22:25.499Z,99.90
2019-05-23T21:25:13.579Z,99.90
2019-05-23T21:27:44.135Z,99.90
2019-05-23T21:30:14.737Z,99.90
2019-05-23T21:32:45.510Z,99.90
2019-05-23T21:35:16.017Z,99.90
2019-05-23T21:37:46.620Z,99.90
2019-05-23T21:40:37.466Z,99.90
2019-05-23T21:43:08.268Z,99.90
2019-05-23T21:45:38.740Z,99.90
2019-05-23T21:48:27.260Z,99.90
2019-05-23T21:50:58.128Z,99.90
2019-05-23T21:53:28.674Z,99.90
2019-05-23T21:56:17.163Z,99.90
2019-05-23T21:59:05.966Z,99.90
2019-05-23T22:02:07.720Z,99.90
2019-05-23T22:05:06.094Z,99.90
2019-05-23T22:07:36.943Z,99.90
2019-05-23T22:10:07.998Z,99.90
2019-05-23T22:13:04.365Z,99.90
2019-05-23T22:15:46.021Z,99.90
2019-05-23T22:18:16.858Z,99.90
2019-05-23T22:20:47.480Z,99.90
2019-05-23T22:23:35.662Z,99.90
2019-05-23T22:26:24.250Z,99.90
2019-05-23T22:28:54.761Z,99.90
2019-05-23T22:31:26.851Z,99.90
2019-05-23T22:34:04.894Z,99.90
2019-05-23T22:36:41.151Z,99.90
2019-05-23T22:39:11.647Z,99.90
2019-05-23T22:42:18.949Z,99.90
2019-05-23T22:44:49.485Z,99.90
2019-05-23T22:47:20.085Z,99.90
2019-05-23T22:49:50.629Z,99.90
2019-05-23T22:52:38.706Z,99.90
2019-05-23T22:55:09.382Z,99.90
2019-05-23T22:57:57.749Z,99.90
2019-05-23T23:00:47.792Z,99.90
2019-05-23T23:03:18.479Z,99.90
2019-05-23T23:05:48.997Z,99.90
2019-05-23T23:08:20.747Z,99.90
2019-05-23T23:11:10.131Z,99.90
2019-05-23T23:13:58.458Z,99.90
2019-05-23T23:16:28.859Z,99.90
2019-05-23T23:18:59.523Z,99.90
2019-05-23T23:21:30.296Z,99.90
2019-05-23T23:24:00.820Z,99.90
2019-05-23T23:26:31.290Z,99.90
2019-05-23T23:29:01.681Z,99.90
2019-05-23T23:31:32.194Z,99.90
2019-05-23T23:34:02.619Z,99.90
2019-05-23T23:36:33.253Z,99.90
2019-05-23T23:39:05.600Z,99.90
2019-05-23T23:41:36.071Z,99.90
2019-05-23T23:44:25.259Z,99.90
2019-05-23T23:47:13.914Z,99.90
2019-05-23T23:50:02.142Z,99.90
2019-05-23T23:53:26.331Z,99.90
2019-05-23T23:56:32.477Z,99.90
2019-05-23T23:59:20.675Z,99.90
